Time;durP1;ratioP1;P1;durP2;ratioP2;P2;SDS_P1;SDS_P2;PMS_P1;PMS_P2;Temp;Humidity;BMP_temperature;BMP_pressure;BME280_temperature;BME280_humidity;BME280_pressure;Samples;Min_cycle;Max_cycle;Signal;HPM_P1;HPM_P2
2022/08/14 00:03:34;;;;;;;3.03;2.83;;;26.70;44.80;;;;;;10072388;28;20024;-61
2022/08/14 00:08:25;;;;;;;4.10;2.80;;;26.50;45.00;;;;;;10067225;28;20038;-61
2022/08/14 00:13:18;;;;;;;3.10;2.63;;;26.60;45.00;;;;;;10070094;28;20033;-60
2022/08/14 00:18:11;;;;;;;4.47;2.30;;;26.60;45.30;;;;;;10058602;28;20029;-60
2022/08/14 00:23:02;;;;;;;3.45;2.30;;;26.40;45.80;;;;;;10059798;28;20025;-61
2022/08/14 00:27:53;;;;;;;2.95;2.60;;;26.40;46.00;;;;;;10086784;28;20052;-62
2022/08/14 00:32:44;;;;;;;3.53;2.33;;;26.30;45.90;;;;;;10074327;28;20152;-62
2022/08/14 00:37:38;;;;;;;5.22;2.47;;;26.30;46.10;;;;;;10075112;28;20330;-61
2022/08/14 00:42:29;;;;;;;5.57;2.53;;;26.30;46.20;;;;;;10071558;28;20224;-63
2022/08/14 00:47:23;;;;;;;2.53;1.92;;;26.30;46.20;;;;;;10064021;28;20179;-66
2022/08/14 00:52:15;;;;;;;3.63;2.33;;;26.20;46.40;;;;;;10058517;28;20033;-63
2022/08/14 00:57:06;;;;;;;3.13;2.40;;;26.20;46.40;;;;;;10060451;28;20130;-65
2022/08/14 01:01:59;;;;;;;3.30;2.50;;;26.00;46.50;;;;;;10076607;28;20099;-63
2022/08/14 01:06:50;;;;;;;5.50;2.97;;;26.00;46.70;;;;;;10068486;28;20116;-65
2022/08/14 01:11:41;;;;;;;7.38;3.53;;;25.90;47.10;;;;;;10063233;28;20037;-65
2022/08/14 01:16:32;;;;;;;3.08;2.25;;;25.70;47.60;;;;;;10065389;28;20039;-63
2022/08/14 01:21:35;;;;;;;3.13;2.30;;;25.60;48.00;;;;;;10066363;28;20032;-62
2022/08/14 01:26:27;;;;;;;3.90;2.60;;;25.50;48.20;;;;;;10093888;28;20200;-61
2022/08/14 01:31:18;;;;;;;3.20;2.30;;;25.40;48.40;;;;;;10082217;28;20060;-60
2022/08/14 01:36:10;;;;;;;2.15;1.95;;;25.30;48.60;;;;;;10083026;28;20100;-60
2022/08/14 01:41:03;;;;;;;3.15;2.17;;;25.30;48.80;;;;;;10066510;28;20520;-60
2022/08/14 01:45:57;;;;;;;2.78;2.30;;;25.30;48.80;;;;;;10063399;28;20060;-64
2022/08/14 01:50:48;;;;;;;3.33;2.42;;;25.20;49.20;;;;;;10062826;28;20091;-61
2022/08/14 01:55:39;;;;;;;4.50;2.70;;;25.00;49.40;;;;;;10059329;28;20273;-60
2022/08/14 02:00:30;;;;;;;3.30;2.67;;;24.90;49.70;;;;;;10078932;28;20294;-61
2022/08/14 02:05:22;;;;;;;4.32;2.42;;;24.80;49.80;;;;;;10085984;28;20028;-63
2022/08/14 02:10:13;;;;;;;3.15;2.05;;;24.70;49.80;;;;;;10074114;28;20049;-60
2022/08/14 02:15:07;;;;;;;2.22;2.03;;;24.50;50.20;;;;;;10064606;28;20045;-65
2022/08/14 02:19:58;;;;;;;3.42;1.85;;;24.40;50.10;;;;;;10059277;28;20091;-65
2022/08/14 02:24:50;;;;;;;3.47;2.50;;;24.30;50.00;;;;;;10088555;28;20368;-61
2022/08/14 02:29:41;;;;;;;2.63;2.22;;;24.20;50.00;;;;;;10086632;28;20020;-62
2022/08/14 02:34:35;;;;;;;2.88;2.28;;;24.10;50.40;;;;;;10075811;28;20377;-62
2022/08/14 02:39:26;;;;;;;4.00;2.58;;;24.00;50.50;;;;;;10071504;28;20280;-64
2022/08/14 02:44:19;;;;;;;2.22;2.03;;;23.90;50.80;;;;;;10069899;28;20323;-65
2022/08/14 02:49:10;;;;;;;3.85;2.30;;;23.70;50.90;;;;;;10065379;28;20071;-63
2022/08/14 02:54:01;;;;;;;3.33;2.20;;;23.70;51.10;;;;;;10059556;28;20087;-65
2022/08/14 02:58:53;;;;;;;2.92;2.35;;;23.60;51.30;;;;;;10066452;28;20040;-63
2022/08/14 03:03:48;;;;;;;2.72;2.30;;;23.50;51.50;;;;;;10072602;28;20038;-64
2022/08/14 03:08:40;;;;;;;5.40;2.40;;;23.40;51.90;;;;;;10063695;28;20094;-63
2022/08/14 03:13:31;;;;;;;3.15;2.60;;;23.20;52.40;;;;;;10064116;28;20026;-62
2022/08/14 03:18:24;;;;;;;2.60;2.40;;;23.20;52.30;;;;;;10054335;28;20317;-63
2022/08/14 03:23:15;;;;;;;4.45;2.53;;;23.00;52.60;;;;;;10059351;28;20025;-61
2022/08/14 03:28:08;;;;;;;3.33;2.50;;;22.90;52.60;;;;;;10090053;28;20040;-64
2022/08/14 03:32:59;;;;;;;3.88;2.40;;;22.60;53.30;;;;;;10076888;28;20071;-59
2022/08/14 03:37:51;;;;;;;3.05;2.60;;;22.60;53.60;;;;;;10069136;28;20398;-63
2022/08/14 03:42:42;;;;;;;4.25;2.28;;;22.50;53.50;;;;;;10071258;28;20083;-60
2022/08/14 03:47:39;;;;;;;3.97;2.70;;;22.50;53.60;;;;;;10062384;28;20116;-62
2022/08/14 03:52:29;;;;;;;3.53;2.65;;;22.30;53.90;;;;;;10059768;28;20100;-63
2022/08/14 03:57:20;;;;;;;5.05;2.70;;;22.20;54.40;;;;;;10054807;28;20044;-62
2022/08/14 04:02:10;;;;;;;4.18;2.58;;;22.20;54.20;;;;;;10075870;28;20244;-64
2022/08/14 04:07:02;;;;;;;5.93;2.70;;;22.20;54.00;;;;;;10075554;28;20055;-61
2022/08/14 04:11:54;;;;;;;4.18;2.22;;;22.30;54.00;;;;;;10056091;28;20432;-63
2022/08/14 04:16:46;;;;;;;2.75;2.30;;;22.30;54.00;;;;;;10076861;28;20196;-61
2022/08/14 04:21:38;;;;;;;2.50;2.25;;;22.30;54.00;;;;;;10071846;28;20119;-61
2022/08/14 04:26:30;;;;;;;2.65;2.45;;;22.20;54.30;;;;;;10065813;28;20021;-59
2022/08/14 04:31:22;;;;;;;2.45;2.13;;;22.20;54.40;;;;;;10070997;28;20016;-60
2022/08/14 04:36:13;;;;;;;2.40;2.20;;;22.20;54.40;;;;;;10064294;28;20329;-62
2022/08/14 04:46:15;;;;;;;2.80;2.35;;;21.90;55.10;;;;;;10055551;28;20040;-61
2022/08/14 04:51:13;;;;;;;3.63;2.35;;;21.90;55.20;;;;;;10076291;28;20036;-61
2022/08/14 04:56:05;;;;;;;2.65;1.98;;;21.80;55.30;;;;;;10065754;28;20049;-63
2022/08/14 05:00:57;;;;;;;3.63;2.83;;;21.90;55.30;;;;;;10068887;28;20048;-64
2022/08/14 05:05:52;;;;;;;3.03;2.25;;;21.90;55.40;;;;;;10064504;28;21122;-65
2022/08/14 05:10:50;;;;;;;;;;;21.90;55.50;;;;;;10060577;28;20018;-61
2022/08/14 05:15:41;;;;;;;3.50;2.85;;;21.90;55.40;;;;;;10080770;28;20367;-62
2022/08/14 05:20:32;;;;;;;3.65;3.17;;;22.10;55.30;;;;;;10082955;28;20029;-63
2022/08/14 05:25:22;;;;;;;3.05;2.63;;;22.20;55.20;;;;;;10074244;28;20449;-65
2022/08/14 05:30:14;;;;;;;2.72;2.53;;;22.30;55.00;;;;;;10079142;28;20037;-60
2022/08/14 05:35:05;;;;;;;4.95;2.65;;;22.40;54.80;;;;;;10065430;28;20021;-60
2022/08/14 05:39:57;;;;;;;4.38;2.60;;;22.50;55.00;;;;;;10067546;28;20414;-60
2022/08/14 05:44:47;;;;;;;2.47;2.28;;;22.60;54.90;;;;;;10059063;28;20035;-61
2022/08/14 05:49:38;;;;;;;3.63;2.85;;;22.60;55.10;;;;;;10056415;28;20121;-61
2022/08/14 05:54:29;;;;;;;2.95;2.65;;;22.60;55.00;;;;;;10063277;28;20067;-61
2022/08/14 05:59:20;;;;;;;2.42;2.22;;;22.50;55.20;;;;;;10066937;28;20029;-60
2022/08/14 06:04:11;;;;;;;2.97;2.70;;;22.60;55.30;;;;;;10078676;28;20025;-60
2022/08/14 06:09:02;;;;;;;3.15;2.60;;;22.60;55.30;;;;;;10074603;28;20041;-59
2022/08/14 06:13:52;;;;;;;2.97;2.50;;;22.60;55.40;;;;;;10067063;28;20075;-60
2022/08/14 06:18:46;;;;;;;3.75;2.55;;;22.50;55.60;;;;;;10061521;28;20287;-60
2022/08/14 06:23:36;;;;;;;2.50;2.30;;;22.50;56.10;;;;;;10092600;28;20059;-59
2022/08/14 06:28:27;;;;;;;3.20;2.90;;;22.50;56.20;;;;;;10076703;28;20540;-60
2022/08/14 06:33:19;;;;;;;3.25;2.88;;;22.50;56.40;;;;;;10082224;28;20052;-60
2022/08/14 06:38:15;;;;;;;5.30;2.67;;;22.60;56.40;;;;;;10079518;28;20079;-61
2022/08/14 06:43:10;;;;;;;2.90;2.40;;;22.70;56.30;;;;;;10072886;28;20783;-61
2022/08/14 06:48:02;;;;;;;4.85;2.70;;;22.70;56.60;;;;;;10068254;28;20057;-61
2022/08/14 06:52:53;;;;;;;4.72;3.00;;;22.80;56.40;;;;;;10067395;28;20112;-60
2022/08/14 06:57:49;;;;;;;5.38;2.78;;;22.80;56.70;;;;;;10060160;28;20526;-62
2022/08/14 07:07:49;;;;;;;2.63;2.40;;;23.10;56.10;;;;;;10072689;28;20064;-60
2022/08/14 07:12:40;;;;;;;3.70;2.63;;;23.20;56.20;;;;;;10078591;28;20485;-60
2022/08/14 07:17:30;;;;;;;4.68;2.63;;;23.30;56.30;;;;;;10072112;28;20176;-63
2022/08/14 07:22:21;;;;;;;3.80;3.05;;;23.40;56.20;;;;;;10067195;28;20022;-61
2022/08/14 07:27:12;;;;;;;2.88;2.65;;;23.60;55.90;;;;;;10061770;28;20026;-62
2022/08/14 07:32:02;;;;;;;5.43;2.67;;;23.60;56.00;;;;;;10091909;28;20351;-63
2022/08/14 07:36:54;;;;;;;2.40;2.17;;;23.80;55.80;;;;;;10071821;28;20041;-60
2022/08/14 07:41:45;;;;;;;4.57;4.18;;;23.90;55.80;;;;;;10078505;28;20028;-60
2022/08/14 07:46:36;;;;;;;4.70;3.25;;;24.20;55.60;;;;;;10069101;28;20028;-59
2022/08/14 07:51:27;;;;;;;5.47;3.80;;;24.30;55.30;;;;;;10068822;28;20014;-59
2022/08/14 07:56:18;;;;;;;8.77;3.45;;;24.50;55.50;;;;;;10060817;28;20043;-60
2022/08/14 08:01:10;;;;;;;5.65;3.38;;;24.80;55.20;;;;;;10057210;28;20100;-59
2022/08/14 08:06:01;;;;;;;3.35;2.70;;;24.90;55.10;;;;;;10074364;28;20406;-65
2022/08/14 08:10:55;;;;;;;3.53;2.83;;;24.90;55.00;;;;;;10068350;28;20467;-60
2022/08/14 08:15:52;;;;;;;3.42;3.13;;;25.00;55.10;;;;;;10069782;28;20068;-65
2022/08/14 08:20:49;;;;;;;5.30;4.45;;;25.10;54.90;;;;;;10061661;28;20530;-66
2022/08/14 08:25:42;;;;;;;3.33;3.03;;;25.10;54.90;;;;;;10056759;28;20021;-59
2022/08/14 08:30:36;;;;;;;5.22;2.63;;;25.30;54.80;;;;;;10077609;28;20152;-61
2022/08/14 08:35:30;;;;;;;3.10;2.70;;;25.40;54.60;;;;;;10075700;28;20090;-62
2022/08/14 08:40:35;;;;;;;6.55;3.55;;;25.60;54.20;;;;;;10080074;28;20682;-63
2022/08/14 08:45:26;;;;;;;5.38;3.45;;;25.70;54.00;;;;;;10076002;28;20538;-61
2022/08/14 08:50:30;;;;;;;4.22;3.05;;;25.80;53.60;;;;;;10068500;28;20263;-59
2022/08/14 08:55:45;;;;;;;5.00;2.97;;;26.00;53.40;;;;;;10059590;28;20092;-62
2022/08/14 09:00:38;;;;;;;5.05;3.20;;;26.10;53.30;;;;;;10056091;28;20099;-62
2022/08/14 09:05:30;;;;;;;3.03;2.72;;;26.30;53.00;;;;;;10065555;28;20480;-62
2022/08/14 09:10:21;;;;;;;3.58;2.72;;;26.70;52.60;;;;;;10073206;28;20399;-60
2022/08/14 09:15:12;;;;;;;3.20;2.83;;;26.90;52.20;;;;;;10065826;28;20073;-60
2022/08/14 09:20:04;;;;;;;2.55;2.10;;;27.00;52.20;;;;;;10063817;28;20038;-64
2022/08/14 09:24:55;;;;;;;2.60;2.28;;;27.10;51.80;;;;;;10060639;28;20037;-61
2022/08/14 09:29:46;;;;;;;5.07;3.55;;;27.30;51.20;;;;;;10066355;28;20746;-62
2022/08/14 09:34:55;;;;;;;5.85;2.88;;;27.40;51.00;;;;;;10068426;28;20226;-59
2022/08/14 09:39:56;;;;;;;2.55;2.03;;;27.70;50.20;;;;;;10084994;28;20383;-59
2022/08/14 09:45:13;;;;;;;3.88;2.13;;;27.70;50.00;;;;;;10080300;28;20041;-60
2022/08/14 09:50:18;;;;;;;2.58;2.05;;;27.80;49.60;;;;;;10073757;28;20032;-61
2022/08/14 09:55:17;;;;;;;;;;;27.90;49.40;;;;;;10067400;28;20025;-63
2022/08/14 10:00:15;;;;;;;2.47;2.10;;;28.00;49.10;;;;;;10061799;28;19921;-63
2022/08/14 10:05:10;;;;;;;2.42;2.05;;;28.00;49.10;;;;;;10067269;28;20021;-63
2022/08/14 10:10:02;;;;;;;2.65;2.40;;;28.20;48.70;;;;;;10081588;28;20091;-64
2022/08/14 10:14:53;;;;;;;2.30;2.10;;;28.30;48.40;;;;;;10064268;28;20526;-64
2022/08/14 10:19:48;;;;;;;2.90;1.95;;;28.40;47.60;;;;;;10069471;28;20245;-63
2022/08/14 10:24:41;;;;;;;1.95;1.60;;;28.50;47.30;;;;;;10063776;28;20061;-63
2022/08/14 10:29:34;;;;;;;3.93;1.93;;;28.70;46.80;;;;;;10055798;28;20028;-66
2022/08/14 10:34:31;;;;;;;3.60;2.05;;;29.00;46.30;;;;;;10081812;28;20057;-62
2022/08/14 10:39:24;;;;;;;1.65;1.52;;;28.80;45.80;;;;;;10085078;28;20048;-63
2022/08/14 10:44:20;;;;;;;2.22;1.77;;;28.70;45.80;;;;;;10064374;28;20411;-66
2022/08/14 10:49:20;;;;;;;1.88;1.73;;;28.90;45.50;;;;;;10073389;28;20470;-64
2022/08/14 10:54:11;;;;;;;3.13;1.98;;;29.20;44.80;;;;;;10068500;28;20117;-62
2022/08/14 10:59:04;;;;;;;2.20;2.00;;;29.50;44.20;;;;;;10057706;28;20017;-65
2022/08/14 11:03:55;;;;;;;3.80;2.50;;;29.70;43.50;;;;;;10076259;28;20029;-66
2022/08/14 11:08:47;;;;;;;1.80;1.70;;;30.00;42.70;;;;;;10075686;28;20060;-59
2022/08/14 11:13:42;;;;;;;1.60;1.48;;;30.30;42.20;;;;;;10073216;28;20053;-62
2022/08/14 11:18:36;;;;;;;1.50;1.30;;;30.40;41.60;;;;;;10068931;28;20044;-61
2022/08/14 11:23:31;;;;;;;3.30;1.17;;;30.70;40.90;;;;;;10062658;28;20053;-62
2022/08/14 11:28:25;;;;;;;1.90;1.40;;;30.70;40.40;;;;;;10064721;28;20120;-60
2022/08/14 11:33:20;;;;;;;2.45;1.58;;;31.00;40.30;;;;;;10076959;28;20093;-60
2022/08/14 11:38:11;;;;;;;2.60;1.73;;;31.10;39.80;;;;;;10079988;28;20041;-62
2022/08/14 11:43:05;;;;;;;1.92;1.50;;;31.30;39.60;;;;;;10079218;28;20189;-59
2022/08/14 11:47:56;;;;;;;2.10;1.90;;;31.40;39.10;;;;;;10073620;28;20075;-63
2022/08/14 11:52:46;;;;;;;1.42;1.20;;;31.60;38.80;;;;;;10069007;28;20078;-60
2022/08/14 11:57:38;;;;;;;1.90;1.50;;;31.90;38.50;;;;;;10060851;28;20328;-60
2022/08/14 12:02:29;;;;;;;2.85;1.50;;;32.10;38.20;;;;;;10053335;28;20025;-61
2022/08/14 12:07:19;;;;;;;2.47;1.50;;;32.40;37.90;;;;;;10075907;28;20048;-60
2022/08/14 12:12:13;;;;;;;2.03;1.17;;;32.30;37.60;;;;;;10071223;28;20029;-60
2022/08/14 12:17:07;;;;;;;1.40;1.10;;;32.60;37.00;;;;;;10068719;28;20060;-60
2022/08/14 12:21:57;;;;;;;;;;;32.70;36.80;;;;;;10062723;28;20553;-58
2022/08/14 12:26:55;;;;;;;2.13;1.33;;;32.70;36.00;;;;;;10055567;28;19941;-60
2022/08/14 12:31:57;;;;;;;1.38;1.08;;;32.70;36.30;;;;;;10086365;28;20032;-60
2022/08/14 12:36:48;;;;;;;1.30;1.20;;;32.60;36.10;;;;;;10073351;28;20025;-60
2022/08/14 12:41:51;;;;;;;1.52;1.10;;;32.70;36.20;;;;;;10078175;28;20048;-61
2022/08/14 12:46:44;;;;;;;2.45;1.02;;;33.10;35.30;;;;;;10071381;28;20045;-61
2022/08/14 12:51:35;;;;;;;1.63;1.13;;;33.60;35.50;;;;;;10067757;28;20133;-59
2022/08/14 12:56:26;;;;;;;1.48;1.13;;;34.00;35.50;;;;;;10058579;28;20515;-61
2022/08/14 13:01:19;;;;;;;0.90;0.90;;;34.40;35.30;;;;;;10056839;28;20025;-62
2022/08/14 13:06:13;;;;;;;1.38;1.10;;;34.90;35.10;;;;;;10053960;28;20116;-60
2022/08/14 13:11:05;;;;;;;1.30;1.20;;;35.00;34.90;;;;;;10069079;28;20041;-59
2022/08/14 13:15:56;;;;;;;1.58;1.30;;;35.50;34.90;;;;;;10066306;28;20108;-59
2022/08/14 13:20:48;;;;;;;1.70;1.30;;;35.30;34.80;;;;;;10064537;28;20034;-60
2022/08/14 13:25:42;;;;;;;2.58;1.50;;;35.20;34.60;;;;;;10059709;28;20021;-61
2022/08/14 13:30:35;;;;;;;2.00;1.30;;;34.60;34.70;;;;;;10075174;28;20029;-61
2022/08/14 13:35:26;;;;;;;3.45;1.95;;;34.40;34.70;;;;;;10075697;28;20025;-59
2022/08/14 13:40:18;;;;;;;2.53;1.52;;;34.20;34.80;;;;;;10080440;28;20045;-60
2022/08/14 13:45:12;;;;;;;2.75;1.90;;;34.30;34.60;;;;;;10065022;28;20032;-60
2022/08/14 13:50:06;;;;;;;3.88;1.63;;;34.40;34.60;;;;;;10067579;28;20056;-59
2022/08/14 13:55:00;;;;;;;1.55;1.15;;;35.40;34.60;;;;;;10059045;28;20269;-60
2022/08/14 13:59:50;;;;;;;1.48;1.30;;;35.90;34.70;;;;;;10047006;28;20057;-60
2022/08/14 14:04:44;;;;;;;1.93;1.50;;;36.70;35.30;;;;;;10059083;28;20017;-61
2022/08/14 14:09:37;;;;;;;1.67;1.52;;;37.40;34.70;;;;;;10077965;28;20057;-60
2022/08/14 14:14:28;;;;;;;1.60;1.50;;;37.80;34.80;;;;;;10067077;28;20021;-62
2022/08/14 14:19:19;;;;;;;2.67;2.00;;;38.10;34.40;;;;;;10064683;28;20526;-63
2022/08/14 14:24:10;;;;;;;1.42;1.33;;;38.20;34.40;;;;;;10062367;28;20852;-63
2022/08/14 14:29:01;;;;;;;1.20;1.10;;;37.80;34.30;;;;;;10072079;28;20044;-62
2022/08/14 14:33:56;;;;;;;3.60;1.67;;;37.40;34.10;;;;;;10085294;28;20026;-62
2022/08/14 14:39:01;;;;;;;1.75;1.65;;;37.60;34.00;;;;;;10084628;28;20461;-63
2022/08/14 14:43:53;;;;;;;1.55;1.45;;;37.60;33.90;;;;;;10081447;28;20019;-62
2022/08/14 14:48:45;;;;;;;2.25;1.92;;;37.20;34.10;;;;;;10069003;28;20032;-60
2022/08/14 14:53:37;;;;;;;2.70;2.20;;;36.70;34.40;;;;;;10070254;28;20020;-62
2022/08/14 14:58:29;;;;;;;2.88;2.20;;;36.80;34.80;;;;;;10058342;28;20073;-63
2022/08/14 15:03:20;;;;;;;5.00;2.38;;;36.50;35.40;;;;;;10059576;28;20022;-62
2022/08/14 15:08:11;;;;;;;4.03;3.08;;;36.10;36.10;;;;;;10078109;28;20049;-60
2022/08/14 15:13:02;;;;;;;5.40;3.40;;;36.40;36.70;;;;;;10079808;28;20020;-63
2022/08/14 15:17:52;;;;;;;3.47;3.17;;;36.10;37.50;;;;;;10071066;28;20446;-62
2022/08/14 15:22:43;;;;;;;4.10;3.15;;;35.50;38.30;;;;;;10065214;28;20017;-61
2022/08/14 15:27:40;;;;;;;2.80;2.28;;;35.70;38.60;;;;;;10060111;28;20041;-63
2022/08/14 15:32:31;;;;;;;3.25;2.33;;;34.90;39.10;;;;;;10091638;28;20036;-60
2022/08/14 15:37:22;;;;;;;3.72;3.33;;;34.80;39.30;;;;;;10077968;28;20063;-61
2022/08/14 15:42:13;;;;;;;7.68;2.70;;;35.30;39.10;;;;;;10081753;28;20502;-60
2022/08/14 15:47:08;;;;;;;6.07;2.53;;;36.10;38.70;;;;;;10076093;28;20039;-63
2022/08/14 15:51:58;;;;;;;3.45;3.00;;;36.20;38.40;;;;;;10063502;28;20046;-61
2022/08/14 15:56:57;;;;;;;3.65;2.28;;;35.20;39.10;;;;;;10060176;28;20068;-63
2022/08/14 16:01:50;;;;;;;4.22;1.95;;;34.60;39.70;;;;;;10055927;28;20160;-62
2022/08/14 16:06:40;;;;;;;3.72;2.30;;;34.20;40.00;;;;;;10068498;28;20629;-61
2022/08/14 16:11:31;;;;;;;6.90;3.55;;;34.00;40.30;;;;;;10067591;28;20116;-62
2022/08/14 16:16:27;;;;;;;3.22;2.35;;;33.40;41.00;;;;;;10072960;28;20134;-63
2022/08/14 16:21:20;;;;;;;4.30;2.42;;;32.80;41.60;;;;;;10062518;28;20487;-59
2022/08/14 16:26:19;;;;;;;4.43;2.72;;;32.50;42.00;;;;;;10056488;28;20018;-60
2022/08/14 16:31:11;;;;;;;5.93;2.63;;;32.20;42.50;;;;;;10080769;28;20068;-59
2022/08/14 16:36:03;;;;;;;5.35;3.45;;;31.90;42.70;;;;;;10075598;28;20113;-60
2022/08/14 16:41:15;;;;;;;5.75;2.40;;;31.40;43.20;;;;;;10079790;28;20099;-59
2022/08/14 16:46:06;;;;;;;3.65;2.08;;;31.10;43.70;;;;;;10060106;28;20108;-60
2022/08/14 16:50:58;;;;;;;5.82;3.00;;;31.00;43.80;;;;;;10067916;28;20093;-61
2022/08/14 16:56:09;;;;;;;4.78;2.58;;;31.00;44.10;;;;;;10060593;28;20025;-59
2022/08/14 17:01:20;;;;;;;3.08;2.20;;;30.70;44.40;;;;;;10049921;28;20061;-59
2022/08/14 17:06:10;;;;;;;3.17;2.38;;;30.40;44.20;;;;;;10070183;28;20530;-59
2022/08/14 17:11:03;;;;;;;2.63;2.42;;;30.00;44.30;;;;;;10066506;28;20057;-59
2022/08/14 17:16:17;;;;;;;2.65;2.25;;;29.80;44.20;;;;;;10070164;28;20267;-64
2022/08/14 17:21:26;;;;;;;3.08;2.20;;;29.70;44.30;;;;;;10061805;28;20035;-59
2022/08/14 17:26:38;;;;;;;5.05;2.95;;;29.60;44.40;;;;;;10056599;28;20033;-60
2022/08/14 17:31:32;;;;;;;6.97;2.83;;;29.70;44.30;;;;;;10082269;28;20017;-60
2022/08/14 17:36:23;;;;;;;2.35;2.08;;;29.50;44.30;;;;;;10070694;28;20029;-62
2022/08/14 17:41:21;;;;;;;4.35;2.47;;;29.60;44.40;;;;;;10074748;28;20312;-60
2022/08/14 17:46:14;;;;;;;2.97;2.50;;;29.70;44.30;;;;;;10063764;28;20026;-61
2022/08/14 17:51:07;;;;;;;3.85;2.85;;;29.60;44.50;;;;;;10051747;28;20468;-62
2022/08/14 17:55:58;;;;;;;3.92;2.30;;;29.60;44.50;;;;;;10050083;28;20046;-63
2022/08/14 18:00:56;;;;;;;3.58;2.33;;;29.60;44.70;;;;;;10060820;28;20446;-60
2022/08/14 18:05:47;;;;;;;4.78;2.47;;;29.60;44.80;;;;;;10067299;28;20506;-60
2022/08/14 18:10:43;;;;;;;5.75;2.85;;;29.50;44.90;;;;;;10078468;28;20479;-60
2022/08/14 18:15:35;;;;;;;4.07;2.75;;;29.50;45.00;;;;;;10074671;28;20535;-60
2022/08/14 18:20:25;;;;;;;3.42;2.28;;;29.30;45.10;;;;;;10071768;28;20040;-59
2022/08/14 18:25:18;;;;;;;3.85;2.47;;;29.20;45.20;;;;;;10065951;28;20410;-61
2022/08/14 18:30:10;;;;;;;4.93;2.80;;;28.90;45.60;;;;;;10078696;28;20032;-60
2022/08/14 18:35:05;;;;;;;4.03;2.22;;;28.70;46.00;;;;;;10081302;28;20024;-60
2022/08/14 18:40:15;;;;;;;4.38;2.50;;;28.70;46.20;;;;;;10083495;28;20036;-63
2022/08/14 18:45:07;;;;;;;5.93;2.53;;;28.90;46.40;;;;;;10076785;28;20036;-61
2022/08/14 18:50:06;;;;;;;4.88;2.78;;;28.90;46.40;;;;;;10071422;28;20097;-61
2022/08/14 18:54:56;;;;;;;5.43;2.65;;;29.00;46.50;;;;;;10061195;28;20029;-62
2022/08/14 18:59:47;;;;;;;4.85;2.63;;;28.80;46.60;;;;;;10058262;28;20041;-62
2022/08/14 19:04:38;;;;;;;4.40;2.50;;;28.90;46.80;;;;;;10077035;28;20021;-59
2022/08/14 19:10:05;;;;;;;5.18;2.63;;;28.80;46.90;;;;;;10076334;28;20041;-61
2022/08/14 19:15:06;;;;;;;3.80;2.35;;;28.80;47.30;;;;;;10020532;28;20036;-59
2022/08/14 19:20:08;;;;;;;5.13;2.60;;;28.70;47.40;;;;;;10066440;28;20033;-60
2022/08/14 19:24:59;;;;;;;7.60;3.15;;;28.70;47.50;;;;;;10059718;28;20017;-60
2022/08/14 19:30:10;;;;;;;3.83;2.83;;;28.80;47.60;;;;;;10075488;28;20502;-60
2022/08/14 19:35:01;;;;;;;4.70;2.95;;;28.80;47.70;;;;;;10067993;28;20136;-60
2022/08/14 19:39:54;;;;;;;5.85;2.97;;;28.60;48.10;;;;;;10076481;28;20032;-61
2022/08/14 19:44:46;;;;;;;4.45;2.72;;;28.40;48.80;;;;;;10077446;28;20304;-60
2022/08/14 19:49:39;;;;;;;8.68;4.22;;;28.40;49.30;;;;;;10069600;28;20025;-60
2022/08/14 19:54:32;;;;;;;9.07;3.40;;;28.30;49.80;;;;;;10066617;28;20037;-62
2022/08/14 19:59:23;;;;;;;6.03;2.60;;;28.20;50.30;;;;;;10056997;28;20499;-59
2022/08/14 20:04:21;;;;;;;5.22;3.67;;;28.20;50.70;;;;;;10074888;28;20027;-62
2022/08/14 20:09:12;;;;;;;5.63;3.08;;;28.20;50.90;;;;;;10072424;28;20225;-61
2022/08/14 20:14:13;;;;;;;7.75;2.92;;;28.10;51.10;;;;;;10068569;28;20276;-63
2022/08/14 20:19:25;;;;;;;4.57;3.30;;;28.00;51.70;;;;;;10065156;28;20136;-61
2022/08/14 20:24:19;;;;;;;4.82;2.60;;;27.80;52.30;;;;;;10059441;28;20022;-60
2022/08/14 20:29:28;;;;;;;;;;;27.70;52.50;;;;;;10067368;28;20445;-62
2022/08/14 20:34:19;;;;;;;9.23;2.92;;;27.60;52.60;;;;;;10076037;28;19916;-63
2022/08/14 20:39:10;;;;;;;5.00;3.88;;;27.70;52.40;;;;;;10082343;28;20056;-62
2022/08/14 20:49:17;;;;;;;4.28;2.75;;;27.80;52.90;;;;;;10064822;28;20037;-60
2022/08/14 20:54:13;;;;;;;7.38;3.35;;;27.80;53.10;;;;;;10065044;28;20036;-63
2022/08/14 20:59:23;;;;;;;4.25;2.70;;;27.80;53.20;;;;;;10053922;28;20029;-61
2022/08/14 21:04:35;;;;;;;5.22;3.00;;;27.70;53.80;;;;;;10073057;28;20044;-61
2022/08/14 21:09:26;;;;;;;2.72;2.42;;;27.60;54.00;;;;;;10072878;28;20083;-61
2022/08/14 21:14:22;;;;;;;4.65;2.60;;;27.50;54.20;;;;;;10068233;28;20065;-62
2022/08/14 21:19:14;;;;;;;3.72;2.20;;;27.50;54.40;;;;;;10061950;28;20041;-58
2022/08/14 21:24:05;;;;;;;5.28;2.92;;;27.40;54.50;;;;;;10056943;28;20026;-59
2022/08/14 21:28:57;;;;;;;5.50;3.13;;;27.40;54.80;;;;;;10064907;28;20102;-63
2022/08/14 21:33:48;;;;;;;4.47;2.50;;;27.30;55.00;;;;;;10081322;28;20025;-63
2022/08/14 21:38:39;;;;;;;5.10;2.65;;;27.30;55.10;;;;;;10088084;28;20037;-61
2022/08/14 21:43:30;;;;;;;4.88;2.85;;;27.20;55.60;;;;;;10079357;28;20032;-59
2022/08/14 21:48:26;;;;;;;4.10;3.20;;;27.30;55.60;;;;;;10075509;28;20028;-59
2022/08/14 21:53:19;;;;;;;4.97;2.70;;;27.20;55.70;;;;;;10071376;28;20061;-61
2022/08/14 21:58:09;;;;;;;3.63;2.67;;;27.10;55.90;;;;;;10062429;28;20046;-61
2022/08/14 22:03:01;;;;;;;4.75;2.30;;;27.00;56.20;;;;;;10060619;28;20411;-58
2022/08/14 22:07:51;;;;;;;6.28;3.08;;;27.00;56.40;;;;;;10077465;28;20049;-61
2022/08/14 22:12:42;;;;;;;3.40;2.08;;;27.20;56.20;;;;;;10079787;28;20025;-60
2022/08/14 22:17:33;;;;;;;4.25;2.45;;;27.00;56.50;;;;;;10071182;28;20431;-61
2022/08/14 22:22:25;;;;;;;5.57;2.33;;;27.10;56.60;;;;;;10065378;28;20056;-62
2022/08/14 22:27:16;;;;;;;4.28;2.58;;;27.10;56.60;;;;;;10061129;28;20551;-60
2022/08/14 22:32:06;;;;;;;5.60;2.65;;;27.10;56.70;;;;;;10093331;28;20112;-62
2022/08/14 22:36:57;;;;;;;3.97;2.80;;;27.00;57.10;;;;;;10071082;28;20100;-60
2022/08/14 22:41:50;;;;;;;3.28;2.60;;;27.00;57.10;;;;;;10080391;28;20021;-60
2022/08/14 22:46:41;;;;;;;4.40;2.50;;;27.00;57.20;;;;;;10070921;28;20017;-60
2022/08/14 22:51:35;;;;;;;7.63;2.33;;;26.90;57.40;;;;;;10071963;28;20025;-58
2022/08/14 22:56:27;;;;;;;3.78;2.63;;;26.70;57.80;;;;;;10062298;28;20033;-58
2022/08/14 23:01:23;;;;;;;3.50;2.67;;;26.70;57.80;;;;;;10059336;28;20041;-60
2022/08/14 23:06:14;;;;;;;4.97;2.60;;;26.70;58.00;;;;;;10075062;28;20124;-60
2022/08/14 23:11:08;;;;;;;4.40;2.05;;;26.60;58.20;;;;;;10070883;28;20066;-61
2022/08/14 23:15:59;;;;;;;4.27;2.37;;;26.70;58.10;;;;;;10075472;28;20436;-59
2022/08/14 23:20:51;;;;;;;4.80;3.72;;;26.50;58.60;;;;;;10065819;28;20395;-60
2022/08/14 23:25:43;;;;;;;4.90;2.75;;;26.30;58.80;;;;;;10053209;28;20108;-61
2022/08/14 23:30:34;;;;;;;5.32;2.90;;;26.00;60.00;;;;;;10080530;28;20033;-59
2022/08/14 23:35:26;;;;;;;7.40;2.80;;;25.70;60.80;;;;;;10078882;28;20391;-59
2022/08/14 23:40:17;;;;;;;4.97;2.70;;;25.70;61.00;;;;;;10082621;28;20044;-60
2022/08/14 23:45:08;;;;;;;5.30;2.58;;;25.30;62.10;;;;;;10077883;28;20021;-61
2022/08/14 23:49:59;;;;;;;5.57;2.22;;;25.00;62.80;;;;;;10071790;28;20079;-62
2022/08/14 23:54:49;;;;;;;3.80;2.05;;;24.50;64.90;;;;;;10064897;28;20120;-60
2022/08/14 23:59:40;;;;;;;4.95;3.38;;;24.30;66.20;;;;;;10057513;28;20049;-60
